createdAt,value
2022-10-24T00:00:53.217Z,20.7
2022-10-24T00:01:55.919Z,20.7
2022-10-24T00:02:58.501Z,20.6
2022-10-24T00:04:01.015Z,20.7
2022-10-24T00:05:03.548Z,20.7
2022-10-24T00:06:06.022Z,20.8
2022-10-24T00:07:08.517Z,20.7
2022-10-24T00:08:11.011Z,20.8
2022-10-24T00:09:13.216Z,20.9
2022-10-24T00:10:15.694Z,20.6
2022-10-24T00:11:18.158Z,20.9
2022-10-24T00:12:20.726Z,20.7
2022-10-24T00:13:23.973Z,20.8
2022-10-24T00:14:25.889Z,20.9
2022-10-24T00:15:28.363Z,20.8
2022-10-24T00:16:30.856Z,20.8
2022-10-24T00:17:33.336Z,20.8
2022-10-24T00:18:35.238Z,20.8
2022-10-24T00:19:37.704Z,20.9
2022-10-24T00:20:40.256Z,20.8
2022-10-24T00:21:42.523Z,20.8
2022-10-24T00:22:45.454Z,20.8
2022-10-24T00:23:48.917Z,20.9
2022-10-24T00:24:51.382Z,20.8
2022-10-24T00:25:53.305Z,20.9
2022-10-24T00:26:55.798Z,20.9
2022-10-24T00:27:58.270Z,20.8
2022-10-24T00:30:04.022Z,20.9
2022-10-24T00:31:06.234Z,20.9
2022-10-24T00:32:08.716Z,20.8
2022-10-24T00:33:11.174Z,20.9
2022-10-24T00:34:13.384Z,20.9
2022-10-24T00:35:15.846Z,20.8
2022-10-24T00:36:18.334Z,21
2022-10-24T00:38:23.082Z,20.9
2022-10-24T00:39:25.365Z,20.9
2022-10-24T00:40:27.251Z,20.8
2022-10-24T00:41:29.736Z,21
2022-10-24T00:42:31.656Z,20.8
2022-10-24T00:43:33.581Z,21
2022-10-24T00:44:35.752Z,21
2022-10-24T00:46:39.780Z,20.9
2022-10-24T00:47:42.299Z,20.9
2022-10-24T00:48:45.754Z,21
2022-10-24T00:49:48.230Z,21
2022-10-24T00:50:50.422Z,20.9
2022-10-24T00:51:52.901Z,20.9
2022-10-24T00:52:55.092Z,20.8
2022-10-24T00:55:00.878Z,21
2022-10-24T00:56:03.345Z,21.1
2022-10-24T00:57:05.810Z,20.9
2022-10-24T00:58:08.289Z,21
2022-10-24T00:59:10.508Z,21
2022-10-24T01:00:12.983Z,21
2022-10-24T01:01:15.683Z,21.1
2022-10-24T01:02:18.203Z,20.9
2022-10-24T01:03:20.721Z,21.2
2022-10-24T01:04:22.911Z,21.1
2022-10-24T01:05:25.113Z,20.9
2022-10-24T01:06:27.290Z,21.1
2022-10-24T01:07:29.180Z,21
2022-10-24T01:08:31.657Z,21.1
2022-10-24T01:09:34.152Z,21
2022-10-24T01:10:36.694Z,21
2022-10-24T01:11:38.981Z,21
2022-10-24T01:12:40.620Z,21
2022-10-24T01:13:43.853Z,21.1
2022-10-24T01:14:46.328Z,21
2022-10-24T01:15:48.806Z,21
2022-10-24T01:16:51.128Z,21
2022-10-24T01:17:53.056Z,21
2022-10-24T01:18:55.308Z,21.1
2022-10-24T01:19:57.786Z,21
2022-10-24T01:21:00.266Z,21.1
2022-10-24T01:22:02.464Z,21.1
2022-10-24T01:23:04.646Z,21.1
2022-10-24T01:24:06.285Z,21
2022-10-24T01:25:08.229Z,21
2022-10-24T01:26:10.722Z,20.9
2022-10-24T01:28:16.732Z,21
2022-10-24T01:29:19.215Z,21
2022-10-24T01:30:21.692Z,21
2022-10-24T01:31:24.161Z,21
2022-10-24T01:32:26.665Z,21.1
2022-10-24T01:33:28.848Z,21
2022-10-24T01:34:31.350Z,21
2022-10-24T01:35:33.827Z,21
2022-10-24T01:36:36.297Z,21
2022-10-24T01:37:38.473Z,21
2022-10-24T01:38:40.957Z,21
2022-10-24T01:39:43.421Z,21
2022-10-24T01:40:45.921Z,21
2022-10-24T01:41:48.144Z,21
2022-10-24T01:42:50.611Z,21.1
2022-10-24T01:44:56.315Z,21.1
2022-10-24T01:45:58.234Z,21.1
2022-10-24T01:47:00.701Z,21.1
2022-10-24T01:48:02.911Z,21
2022-10-24T01:49:05.384Z,21
2022-10-24T01:50:07.605Z,21.1
2022-10-24T01:51:09.538Z,21.1
2022-10-24T01:53:15.291Z,21.1
2022-10-24T01:54:24.099Z,21
2022-10-24T01:55:26.296Z,21.2
2022-10-24T01:56:28.792Z,21.1
2022-10-24T01:57:31.295Z,21.1
2022-10-24T01:58:33.761Z,21
2022-10-24T01:59:36.239Z,21
2022-10-24T02:00:38.994Z,21
2022-10-24T02:01:42.051Z,21.1
2022-10-24T02:02:45.482Z,21.1
2022-10-24T02:03:49.307Z,21
2022-10-24T02:04:51.771Z,21.1
2022-10-24T02:05:54.274Z,21
2022-10-24T02:06:56.462Z,21.1
2022-10-24T02:07:58.658Z,21.1
2022-10-24T02:09:01.202Z,21
2022-10-24T02:10:03.867Z,21.2
2022-10-24T02:11:06.037Z,21.1
2022-10-24T02:12:08.004Z,21
2022-10-24T02:13:10.224Z,21
2022-10-24T02:14:12.422Z,21.1
2022-10-24T02:15:14.330Z,21
2022-10-24T02:16:16.525Z,21.1
2022-10-24T02:17:19.138Z,21
2022-10-24T02:18:21.312Z,21.1
2022-10-24T02:19:23.796Z,21
2022-10-24T02:20:26.271Z,21.1
2022-10-24T02:21:27.929Z,21.1
2022-10-24T02:22:30.155Z,21.1
2022-10-24T02:23:32.353Z,21
2022-10-24T02:24:34.552Z,21
2022-10-24T02:25:36.377Z,21
2022-10-24T02:26:38.861Z,21.1
2022-10-24T02:27:41.077Z,21.1
2022-10-24T02:28:44.507Z,21.1
2022-10-24T02:29:46.696Z,21.2
2022-10-24T02:30:49.174Z,21
2022-10-24T02:31:51.648Z,21.1
2022-10-24T02:32:53.848Z,21.1
2022-10-24T02:33:56.315Z,21
2022-10-24T02:34:58.801Z,21.1
2022-10-24T02:36:00.990Z,21.1
2022-10-24T02:37:02.993Z,21.1
2022-10-24T02:38:05.455Z,21.1
2022-10-24T02:39:07.927Z,21.1
2022-10-24T02:40:10.102Z,21.1
2022-10-24T02:41:12.027Z,21.2
2022-10-24T02:42:14.496Z,21.1
2022-10-24T02:43:16.910Z,21.3
2022-10-24T02:44:19.132Z,21.1
2022-10-24T02:45:21.350Z,21.2
2022-10-24T02:46:23.818Z,21
2022-10-24T02:47:26.016Z,21.1
2022-10-24T02:48:28.504Z,21.1
2022-10-24T02:49:30.968Z,21.1
2022-10-24T02:50:33.469Z,21
2022-10-24T02:51:35.657Z,21.1
2022-10-24T02:52:37.873Z,21.1
2022-10-24T02:53:40.061Z,21.2
2022-10-24T02:54:42.240Z,21.2
2022-10-24T02:55:44.713Z,21.1
2022-10-24T02:56:47.247Z,21.1
2022-10-24T02:57:49.764Z,21.1
2022-10-24T02:58:52.057Z,21.2
2022-10-24T02:59:54.287Z,21.1
2022-10-24T03:00:56.595Z,21.1
2022-10-24T03:01:58.997Z,21.2
2022-10-24T03:03:01.205Z,21.1
2022-10-24T03:04:03.669Z,21.2
2022-10-24T03:05:05.861Z,21.2
2022-10-24T03:06:08.341Z,21.1
2022-10-24T03:07:10.540Z,21.1
2022-10-24T03:08:13.045Z,21.1
2022-10-24T03:09:15.542Z,21
2022-10-24T03:10:18.010Z,21
2022-10-24T03:11:20.484Z,21
2022-10-24T03:12:22.675Z,21
2022-10-24T03:13:24.867Z,21.1
2022-10-24T03:14:27.358Z,21.1
2022-10-24T03:15:29.301Z,21
2022-10-24T03:16:31.492Z,20.9
2022-10-24T03:17:33.960Z,20.9
2022-10-24T03:18:36.428Z,20.9
2022-10-24T03:19:38.652Z,20.9
2022-10-24T03:20:40.854Z,20.9
2022-10-24T03:21:43.345Z,20.9
2022-10-24T03:22:45.822Z,20.9
2022-10-24T03:23:48.316Z,20.8
2022-10-24T03:25:55.206Z,20.7
2022-10-24T03:26:57.385Z,20.8
2022-10-24T03:27:59.847Z,20.8
2022-10-24T03:29:02.021Z,20.9
2022-10-24T03:30:04.515Z,20.7
2022-10-24T03:31:07.007Z,20.9
2022-10-24T03:32:09.476Z,20.9
2022-10-24T03:33:11.677Z,20.8
2022-10-24T03:34:13.899Z,20.8
2022-10-24T03:35:16.105Z,20.8
2022-10-24T03:36:18.570Z,20.8
2022-10-24T03:37:20.873Z,20.8
2022-10-24T03:38:23.113Z,20.6
2022-10-24T03:39:25.627Z,20.6
2022-10-24T03:40:28.092Z,20.8
2022-10-24T03:41:30.013Z,20.9
2022-10-24T03:42:32.805Z,20.7
2022-10-24T03:43:35.509Z,20.9
2022-10-24T03:44:37.501Z,20.7
2022-10-24T03:45:40.022Z,20.7
2022-10-24T03:46:42.255Z,20.7
2022-10-24T03:47:44.747Z,20.7
2022-10-24T03:48:47.246Z,20.7
2022-10-24T03:49:49.544Z,20.8
2022-10-24T03:50:52.330Z,20.7
2022-10-24T03:51:54.810Z,20.6
2022-10-24T03:52:57.296Z,20.7
2022-10-24T03:53:59.504Z,20.7
2022-10-24T03:55:01.722Z,20.7
2022-10-24T03:56:03.661Z,20.7
2022-10-24T03:57:05.867Z,20.7
2022-10-24T03:58:08.072Z,20.7
2022-10-24T03:59:10.537Z,20.7
2022-10-24T04:00:12.739Z,20.7
2022-10-24T04:01:15.156Z,20.7
2022-10-24T04:02:18.290Z,20.7
2022-10-24T04:03:20.215Z,20.6
2022-10-24T04:04:22.138Z,20.7
2022-10-24T04:05:24.607Z,20.6
2022-10-24T04:06:27.421Z,20.8
2022-10-24T04:07:34.092Z,20.7
2022-10-24T04:08:36.318Z,20.7
2022-10-24T04:09:38.495Z,20.8
2022-10-24T04:10:40.725Z,20.6
2022-10-24T04:11:42.625Z,20.7
2022-10-24T04:12:44.838Z,20.6
2022-10-24T04:13:46.743Z,20.7
2022-10-24T04:14:49.221Z,20.7
2022-10-24T04:15:51.119Z,20.6
2022-10-24T04:16:53.356Z,20.6
2022-10-24T04:17:55.862Z,20.4
2022-10-24T04:18:58.350Z,20.6
2022-10-24T04:20:00.555Z,20.6
2022-10-24T04:21:02.796Z,20.6
2022-10-24T04:22:05.033Z,20.7
2022-10-24T04:23:07.540Z,20.5
2022-10-24T04:24:09.200Z,20.6
2022-10-24T04:25:11.392Z,20.6
2022-10-24T04:26:13.884Z,20.7
2022-10-24T04:27:16.090Z,20.8
2022-10-24T04:28:18.285Z,20.5
2022-10-24T04:29:20.182Z,20.6
2022-10-24T04:30:22.689Z,20.6
2022-10-24T04:31:25.179Z,20.7
2022-10-24T04:32:27.676Z,20.6
2022-10-24T04:33:29.937Z,20.5
2022-10-24T04:34:31.855Z,20.7
2022-10-24T04:35:33.788Z,20.7
2022-10-24T04:36:36.260Z,20.6
2022-10-24T04:37:38.739Z,20.5
2022-10-24T04:38:41.211Z,20.6
2022-10-24T04:39:43.731Z,20.7
2022-10-24T04:40:46.211Z,20.7
2022-10-24T04:41:48.703Z,20.6
2022-10-24T04:42:50.616Z,20.6
2022-10-24T04:43:53.105Z,20.7
2022-10-24T04:44:55.592Z,20.6
2022-10-24T04:45:58.092Z,20.7
2022-10-24T04:47:00.277Z,20.7
2022-10-24T04:48:02.773Z,20.5
2022-10-24T04:49:05.334Z,20.7
2022-10-24T04:50:07.810Z,20.5
2022-10-24T04:51:10.015Z,20.7
2022-10-24T04:52:12.011Z,20.6
2022-10-24T04:53:14.203Z,20.7
2022-10-24T04:54:16.422Z,20.6
2022-10-24T04:55:18.635Z,20.6
2022-10-24T04:56:21.112Z,20.5
2022-10-24T04:57:23.323Z,20.6
2022-10-24T04:58:25.803Z,20.7
2022-10-24T04:59:27.999Z,20.6
2022-10-24T05:00:30.177Z,20.5
2022-10-24T05:01:32.620Z,20.5
2022-10-24T05:02:35.325Z,20.7
2022-10-24T05:03:38.213Z,20.7
2022-10-24T05:04:40.705Z,20.8
2022-10-24T05:05:42.916Z,20.7
2022-10-24T05:06:45.756Z,20.6
2022-10-24T05:07:48.195Z,20.6
2022-10-24T05:08:50.390Z,20.6
2022-10-24T05:09:52.330Z,20.6
2022-10-24T05:10:54.825Z,20.6
2022-10-24T05:11:57.298Z,20.6
2022-10-24T05:12:59.829Z,20.5
2022-10-24T05:14:02.308Z,20.6
2022-10-24T05:15:04.481Z,20.7
2022-10-24T05:16:06.677Z,20.6
2022-10-24T05:17:08.867Z,20.6
2022-10-24T05:18:11.341Z,20.6
2022-10-24T05:19:13.669Z,20.6
2022-10-24T05:20:16.212Z,20.7
2022-10-24T05:21:18.144Z,20.5
2022-10-24T05:22:20.608Z,20.5
2022-10-24T05:23:23.075Z,20.5
2022-10-24T05:24:24.983Z,20.5
2022-10-24T05:25:27.451Z,20.6
2022-10-24T05:26:29.945Z,20.6
2022-10-24T05:27:32.136Z,20.6
2022-10-24T05:28:34.627Z,20.5
2022-10-24T05:29:37.463Z,20.6
2022-10-24T05:30:39.934Z,20.6
2022-10-24T05:31:42.130Z,20.6
2022-10-24T05:32:45.073Z,20.6
2022-10-24T05:33:48.852Z,20.5
2022-10-24T05:34:51.372Z,20.5
2022-10-24T05:35:53.874Z,20.4
2022-10-24T05:36:56.077Z,20.5
2022-10-24T05:37:58.288Z,20.4
2022-10-24T05:39:00.491Z,20.6
2022-10-24T05:40:02.688Z,20.5
2022-10-24T05:41:05.174Z,20.5
2022-10-24T05:42:07.685Z,20.6
2022-10-24T05:43:09.594Z,20.6
2022-10-24T05:44:12.091Z,20.5
2022-10-24T05:45:14.274Z,20.6
2022-10-24T05:46:16.750Z,20.6
2022-10-24T05:47:19.231Z,20.5
2022-10-24T05:48:23.431Z,20.5
2022-10-24T05:49:25.645Z,20.4
2022-10-24T05:50:27.889Z,20.4
2022-10-24T05:51:30.408Z,20.5
2022-10-24T05:52:32.321Z,20.5
2022-10-24T05:53:34.531Z,20.6
2022-10-24T05:55:41.740Z,20.6
2022-10-24T05:56:43.936Z,20.5
2022-10-24T05:57:47.507Z,20.6
2022-10-24T05:58:50.435Z,20.5
2022-10-24T05:59:52.922Z,20.7
2022-10-24T06:00:55.431Z,20.6
2022-10-24T06:01:58.092Z,20.6
2022-10-24T06:03:00.977Z,20.5
2022-10-24T06:04:03.170Z,20.6
2022-10-24T06:05:07.790Z,20.4
2022-10-24T06:06:09.997Z,20.4
2022-10-24T06:07:12.505Z,20.5
2022-10-24T06:08:14.719Z,20.4
2022-10-24T06:09:17.206Z,20.5
2022-10-24T06:10:19.419Z,20.5
2022-10-24T06:12:24.917Z,20.6
2022-10-24T06:13:27.428Z,20.5
2022-10-24T06:14:33.383Z,20.5
2022-10-24T06:15:35.045Z,20.5
2022-10-24T06:16:37.259Z,20.5
2022-10-24T06:17:39.738Z,20.6
2022-10-24T06:18:42.218Z,20.6
2022-10-24T06:19:44.633Z,20.5
2022-10-24T06:20:47.048Z,20.5
2022-10-24T06:21:53.245Z,20.6
2022-10-24T06:22:55.751Z,20.6
2022-10-24T06:23:57.646Z,20.4
2022-10-24T06:24:59.851Z,20.5
2022-10-24T06:26:01.813Z,20.6
2022-10-24T06:27:03.464Z,20.5
2022-10-24T06:28:05.818Z,20.5
2022-10-24T06:29:08.154Z,20.6
2022-10-24T06:30:10.369Z,20.5
2022-10-24T06:31:12.984Z,20.5
2022-10-24T06:32:15.471Z,20.5
2022-10-24T06:33:17.671Z,20.5
2022-10-24T06:35:23.734Z,20.5
2022-10-24T06:37:31.219Z,20.5
2022-10-24T06:38:33.745Z,20.5
2022-10-24T06:39:36.217Z,20.5
2022-10-24T06:40:38.690Z,20.5
2022-10-24T06:41:40.621Z,20.4
2022-10-24T06:42:43.101Z,20.6
2022-10-24T06:43:44.725Z,20.5
2022-10-24T06:44:47.389Z,20.7
2022-10-24T06:45:49.777Z,20.5
2022-10-24T06:46:52.587Z,20.5
2022-10-24T06:47:55.683Z,20.5
2022-10-24T06:48:58.888Z,20.4
2022-10-24T06:50:01.095Z,20.6
2022-10-24T06:51:03.588Z,20.4
2022-10-24T06:52:06.072Z,20.3
2022-10-24T06:53:08.643Z,20.5
2022-10-24T06:54:11.124Z,20.5
2022-10-24T06:55:14.247Z,20.5
2022-10-24T06:56:16.442Z,20.4
2022-10-24T06:57:18.928Z,20.5
2022-10-24T06:58:21.105Z,20.5
2022-10-24T06:59:23.289Z,20.4
2022-10-24T07:00:25.683Z,20.5
2022-10-24T07:01:29.587Z,20.4
2022-10-24T07:02:32.608Z,20.5
2022-10-24T07:03:35.422Z,20.4
2022-10-24T07:04:37.625Z,20.5
2022-10-24T07:05:40.110Z,20.6
2022-10-24T07:06:42.044Z,20.4
2022-10-24T07:07:45.737Z,20.6
2022-10-24T07:08:49.476Z,20.4
2022-10-24T07:09:51.999Z,20.4
2022-10-24T07:10:54.487Z,20.5
2022-10-24T07:11:56.437Z,20.4
2022-10-24T07:12:58.643Z,20.4
2022-10-24T07:14:04.473Z,20.5
2022-10-24T07:15:07.902Z,20.4
2022-10-24T07:16:10.422Z,20.4
2022-10-24T07:17:12.659Z,20.5
2022-10-24T07:18:15.176Z,20.6
2022-10-24T07:19:17.389Z,20.4
2022-10-24T07:20:19.874Z,20.4
2022-10-24T07:21:22.067Z,20.4
2022-10-24T07:22:24.283Z,20.5
2022-10-24T07:23:28.161Z,20.5
2022-10-24T07:24:30.677Z,20.5
2022-10-24T07:25:32.910Z,20.6
2022-10-24T07:26:35.129Z,20.3
2022-10-24T07:27:37.364Z,20.4
2022-10-24T07:28:39.563Z,20.5
2022-10-24T07:29:41.756Z,20.5
2022-10-24T07:30:43.691Z,20.5
2022-10-24T07:31:46.185Z,20.4
2022-10-24T07:32:48.740Z,20.4
2022-10-24T07:33:51.233Z,20.4
2022-10-24T07:34:53.439Z,20.3
2022-10-24T07:35:55.925Z,20.5
2022-10-24T07:36:58.404Z,20.5
2022-10-24T07:38:00.391Z,20.4
2022-10-24T07:39:02.601Z,20.6
2022-10-24T07:40:05.118Z,20.5
2022-10-24T07:41:07.701Z,20.5
2022-10-24T07:42:10.170Z,20.5
2022-10-24T07:43:12.645Z,20.5
2022-10-24T07:44:15.114Z,20.4
2022-10-24T07:45:17.609Z,20.4
2022-10-24T07:46:20.081Z,20.4
2022-10-24T07:47:22.606Z,20.5
2022-10-24T07:48:24.813Z,20.6
2022-10-24T07:50:32.027Z,20.5
2022-10-24T07:51:34.502Z,20.5
2022-10-24T07:52:36.429Z,20.4
2022-10-24T07:53:38.901Z,20.4
2022-10-24T07:54:41.421Z,20.3
2022-10-24T07:55:43.356Z,20.4
2022-10-24T07:56:45.588Z,20.5
2022-10-24T07:57:48.664Z,20.4
2022-10-24T07:58:51.142Z,20.4
2022-10-24T07:59:53.378Z,20.5
2022-10-24T08:00:55.861Z,20.4
2022-10-24T08:01:58.480Z,20.4
2022-10-24T08:03:00.970Z,20.4
2022-10-24T08:04:03.177Z,20.5
2022-10-24T08:05:05.395Z,20.5
2022-10-24T08:06:07.876Z,20.5
2022-10-24T08:07:10.375Z,20.6
2022-10-24T08:09:17.571Z,20.4
2022-10-24T08:10:19.814Z,20.5
2022-10-24T08:11:22.397Z,20.4
2022-10-24T08:12:24.655Z,20.4
2022-10-24T08:13:27.129Z,20.5
2022-10-24T08:14:29.328Z,20.4
2022-10-24T08:15:31.250Z,20.4
2022-10-24T08:16:33.470Z,20.4
2022-10-24T08:17:35.948Z,20.3
2022-10-24T08:19:44.776Z,20.3
2022-10-24T08:20:47.305Z,20.4
2022-10-24T08:21:49.793Z,20.5
2022-10-24T08:22:52.268Z,20.5
2022-10-24T08:23:54.741Z,20.4
2022-10-24T08:24:56.946Z,20.4
2022-10-24T08:25:59.418Z,20.3
2022-10-24T08:27:01.660Z,20.4
2022-10-24T08:29:08.908Z,20.4
2022-10-24T08:30:11.385Z,20.3
2022-10-24T08:31:13.858Z,20.4
2022-10-24T08:32:16.048Z,20.4
2022-10-24T08:33:19.821Z,20.4
2022-10-24T08:34:21.812Z,20.6
2022-10-24T08:35:24.070Z,20.3
2022-10-24T08:36:25.727Z,20.3
2022-10-24T08:37:28.117Z,20.4
2022-10-24T08:38:30.555Z,20.5
2022-10-24T08:39:32.530Z,20.5
2022-10-24T08:40:34.781Z,20.4
2022-10-24T08:41:37.274Z,20.4
2022-10-24T08:42:39.804Z,20.4
2022-10-24T08:43:42.487Z,20.4
2022-10-24T08:44:44.807Z,20.4
2022-10-24T08:45:47.023Z,20.4
2022-10-24T08:46:49.602Z,20.3
2022-10-24T08:47:52.133Z,20.5
2022-10-24T08:48:54.357Z,20.4
2022-10-24T08:49:56.294Z,20.5
2022-10-24T08:50:58.237Z,20.3
2022-10-24T08:52:00.770Z,20.4
2022-10-24T08:53:02.972Z,20.5
2022-10-24T08:54:05.188Z,20.4
2022-10-24T08:55:11.060Z,20.4
2022-10-24T08:56:14.709Z,20.5
2022-10-24T08:57:16.913Z,20.3
2022-10-24T08:58:19.124Z,20.6
2022-10-24T08:59:21.671Z,20.4
2022-10-24T09:00:24.163Z,20.4
2022-10-24T09:01:26.942Z,20.4
2022-10-24T09:02:30.330Z,20.4
2022-10-24T09:04:38.481Z,20.3
2022-10-24T09:05:40.718Z,20.4
2022-10-24T09:06:42.386Z,20.3
2022-10-24T09:07:45.250Z,20.5
2022-10-24T09:08:49.347Z,20.5
2022-10-24T09:09:51.275Z,20.3
2022-10-24T09:10:53.326Z,20.4
2022-10-24T09:11:55.281Z,20.5
2022-10-24T09:12:57.503Z,20.3
2022-10-24T09:13:59.746Z,20.4
2022-10-24T09:15:02.280Z,20.3
2022-10-24T09:16:04.486Z,20.4
2022-10-24T09:17:07.006Z,20.2
2022-10-24T09:18:08.891Z,20.4
2022-10-24T09:19:11.361Z,20.6
2022-10-24T09:20:13.853Z,20.3
2022-10-24T09:21:16.347Z,20.5
2022-10-24T09:22:18.847Z,20.4
2022-10-24T09:23:21.354Z,20.4
2022-10-24T09:24:23.845Z,20.3
2022-10-24T09:25:26.065Z,20.4
2022-10-24T09:26:28.548Z,20.5
2022-10-24T09:27:30.750Z,20.4
2022-10-24T09:28:32.987Z,20.4
2022-10-24T09:29:35.603Z,20.4
2022-10-24T09:30:38.149Z,20.5
2022-10-24T09:31:40.618Z,20.3
2022-10-24T09:32:43.115Z,20.4
2022-10-24T09:33:45.335Z,20.2
2022-10-24T09:34:47.820Z,20.3
2022-10-24T09:35:50.292Z,20.5
2022-10-24T09:36:52.800Z,20.3
2022-10-24T09:37:55.641Z,20.5
2022-10-24T09:38:58.505Z,20.4
2022-10-24T09:40:00.435Z,20.4
2022-10-24T09:41:02.635Z,20.4
2022-10-24T09:42:05.326Z,20.5
2022-10-24T09:43:07.551Z,20.4
2022-10-24T09:44:10.032Z,20.5
2022-10-24T09:45:12.266Z,20.4
2022-10-24T09:46:14.782Z,20.4
2022-10-24T09:48:21.195Z,20.4
2022-10-24T09:49:27.471Z,20.6
2022-10-24T09:50:29.652Z,20.5
2022-10-24T09:51:31.863Z,20.3
2022-10-24T09:52:33.967Z,20.4
2022-10-24T09:53:36.151Z,20.4
2022-10-24T09:54:38.373Z,20.4
2022-10-24T09:55:40.568Z,20.3
2022-10-24T09:56:42.507Z,20.5
2022-10-24T09:57:45.824Z,20.3
2022-10-24T09:58:49.644Z,20.3
2022-10-24T09:59:52.115Z,20.3
2022-10-24T10:00:54.643Z,20.4
2022-10-24T10:01:57.833Z,20.4
2022-10-24T10:03:01.176Z,20.4
2022-10-24T10:05:08.118Z,20.3
2022-10-24T10:06:10.313Z,20.4
2022-10-24T10:07:12.218Z,20.5
2022-10-24T10:08:14.715Z,20.4
2022-10-24T10:09:17.231Z,20.4
2022-10-24T10:10:19.458Z,20.3
2022-10-24T10:11:21.656Z,20.4
2022-10-24T10:12:23.858Z,20.5
2022-10-24T10:13:26.038Z,20.4
2022-10-24T10:14:28.232Z,20.2
2022-10-24T10:15:30.409Z,20.4
2022-10-24T10:16:32.367Z,20.4
2022-10-24T10:17:34.593Z,20.3
2022-10-24T10:18:37.078Z,20.3
2022-10-24T10:19:39.283Z,20.4
2022-10-24T10:20:41.765Z,20.4
2022-10-24T10:21:43.730Z,20.4
2022-10-24T10:22:45.680Z,20.3
2022-10-24T10:23:47.924Z,20.5
2022-10-24T10:24:50.128Z,20.4
2022-10-24T10:25:52.645Z,20.4
2022-10-24T10:26:54.844Z,20.4
2022-10-24T10:29:02.306Z,20.4
2022-10-24T10:30:04.477Z,20.4
2022-10-24T10:31:06.966Z,20.3
2022-10-24T10:32:09.190Z,20.2
2022-10-24T10:33:11.689Z,20.3
2022-10-24T10:35:19.155Z,20.3
2022-10-24T10:36:21.628Z,20.4
2022-10-24T10:37:24.099Z,20.4
2022-10-24T10:38:26.031Z,20.3
2022-10-24T10:39:28.263Z,20.2
2022-10-24T10:40:30.742Z,20.4
2022-10-24T10:41:32.969Z,20.4
2022-10-24T10:42:35.166Z,20.4
2022-10-24T10:43:37.632Z,20.3
2022-10-24T10:44:39.841Z,20.4
2022-10-24T10:45:42.308Z,20.3
2022-10-24T10:46:44.536Z,20.5
2022-10-24T10:47:46.474Z,20.3
2022-10-24T10:48:48.747Z,20.2
2022-10-24T10:49:51.230Z,20.4
2022-10-24T10:50:53.463Z,20.3
2022-10-24T10:51:55.727Z,20.3
2022-10-24T10:52:58.212Z,20.4
2022-10-24T10:54:00.148Z,20.2
2022-10-24T10:55:02.654Z,20.4
2022-10-24T10:56:05.134Z,20.3
2022-10-24T10:57:07.633Z,20.3
2022-10-24T10:59:14.820Z,20.3
2022-10-24T11:00:17.030Z,20.3
2022-10-24T11:01:19.217Z,20.4
2022-10-24T11:02:22.240Z,20.4
2022-10-24T11:03:25.441Z,20.3
2022-10-24T11:04:27.954Z,20.3
2022-10-24T11:05:30.441Z,20.3
2022-10-24T11:06:32.918Z,20.4
2022-10-24T11:07:35.379Z,20.3
2022-10-24T11:08:37.601Z,20.4
2022-10-24T11:09:40.070Z,20.4
2022-10-24T11:10:42.573Z,20.3
2022-10-24T11:11:44.515Z,20.3
2022-10-24T11:12:46.764Z,20.4
2022-10-24T11:13:48.968Z,20.4
2022-10-24T11:14:51.458Z,20.4
2022-10-24T11:15:53.930Z,20.2
2022-10-24T11:16:56.459Z,20.3
2022-10-24T11:17:58.643Z,20.3
2022-10-24T11:19:00.578Z,20.4
2022-10-24T11:20:03.313Z,20.4
2022-10-24T11:21:05.541Z,20.4
2022-10-24T11:22:08.014Z,20.3
2022-10-24T11:23:10.698Z,20.3
2022-10-24T11:24:14.388Z,20.4
2022-10-24T11:25:16.884Z,20.2
2022-10-24T11:26:19.376Z,20.3
2022-10-24T11:27:21.856Z,20.3
2022-10-24T11:28:23.513Z,20.3
2022-10-24T11:29:26.014Z,20.4
2022-10-24T11:30:27.914Z,20.3
2022-10-24T11:31:30.393Z,20.5
2022-10-24T11:32:32.588Z,20.5
2022-10-24T11:33:34.790Z,20.3
2022-10-24T11:34:37.289Z,20.5
2022-10-24T11:35:39.828Z,20.5
2022-10-24T11:36:42.049Z,20.4
2022-10-24T11:37:44.528Z,20.4
2022-10-24T11:38:46.737Z,20.4
2022-10-24T11:39:48.782Z,20.3
2022-10-24T11:41:56.676Z,20.4
2022-10-24T11:42:59.349Z,20.2
2022-10-24T11:44:02.218Z,20.4
2022-10-24T11:45:04.453Z,20.3
2022-10-24T11:46:06.944Z,20.2
2022-10-24T11:47:09.424Z,20.2
2022-10-24T11:48:11.893Z,20.4
2022-10-24T11:49:14.145Z,20.5
2022-10-24T11:50:17.467Z,20.3
2022-10-24T11:51:22.102Z,20.4
2022-10-24T11:52:24.356Z,20.4
2022-10-24T11:53:26.533Z,20.4
2022-10-24T11:54:29.013Z,20.4
2022-10-24T11:55:30.361Z,20.2
2022-10-24T11:56:32.870Z,20.4
2022-10-24T11:57:35.392Z,20.4
2022-10-24T11:58:37.331Z,20.1
2022-10-24T12:00:44.809Z,20.4
2022-10-24T12:01:47.173Z,20.4
2022-10-24T12:02:48.912Z,20.4
2022-10-24T12:03:51.449Z,20.4
2022-10-24T12:04:53.369Z,20.4
2022-10-24T12:05:55.879Z,20.4
2022-10-24T12:06:58.385Z,20.4
2022-10-24T12:08:00.637Z,20.3
2022-10-24T12:09:03.124Z,20.4
2022-10-24T12:10:05.343Z,20.4
2022-10-24T12:11:07.813Z,20.4
2022-10-24T12:12:10.033Z,20.3
2022-10-24T12:13:12.253Z,20.4
2022-10-24T12:14:14.084Z,20.4
2022-10-24T12:15:17.091Z,20.2
2022-10-24T12:16:19.300Z,20.3
2022-10-24T12:17:21.779Z,20.3
2022-10-24T12:18:24.249Z,20.1
2022-10-24T12:19:26.718Z,20.4
2022-10-24T12:20:29.197Z,20.3
2022-10-24T12:21:31.419Z,20.2
2022-10-24T12:22:33.896Z,20.3
2022-10-24T12:23:36.227Z,20.3
2022-10-24T12:24:38.433Z,20.4
2022-10-24T12:26:45.917Z,20.3
2022-10-24T12:27:48.100Z,20.3
2022-10-24T12:28:50.395Z,20.2
2022-10-24T12:29:52.733Z,20.3
2022-10-24T12:30:55.235Z,20.4
2022-10-24T12:31:56.902Z,20.3
2022-10-24T12:32:59.379Z,20.3
2022-10-24T12:34:01.297Z,20.2
2022-10-24T12:36:08.203Z,20.2
2022-10-24T12:37:10.805Z,20.5
2022-10-24T12:38:13.520Z,20.4
2022-10-24T12:39:15.830Z,20.1
2022-10-24T12:40:18.685Z,20.4
2022-10-24T12:41:20.903Z,20.3
2022-10-24T12:42:23.095Z,20.3
2022-10-24T12:43:25.594Z,20.3
2022-10-24T12:44:28.093Z,20.3
2022-10-24T12:45:30.588Z,20.2
2022-10-24T12:46:32.812Z,20.4
2022-10-24T12:47:35.307Z,20.3
2022-10-24T12:48:37.266Z,20.2
2022-10-24T12:49:39.465Z,20.4
2022-10-24T12:50:41.665Z,20.4
2022-10-24T12:51:44.184Z,20.3
2022-10-24T12:52:47.620Z,20.3
2022-10-24T12:53:50.563Z,20.3
2022-10-24T12:54:53.160Z,20.4
2022-10-24T12:55:55.362Z,20.3
2022-10-24T12:56:57.847Z,20.3
2022-10-24T12:58:00.061Z,20.3
2022-10-24T12:59:02.279Z,20.1
2022-10-24T13:00:04.508Z,20.3
2022-10-24T13:01:06.650Z,20.2
2022-10-24T13:02:09.758Z,20.2
2022-10-24T13:03:12.541Z,20.3
2022-10-24T13:04:15.022Z,20.4
2022-10-24T13:05:17.515Z,20.2
2022-10-24T13:06:19.999Z,20.4
2022-10-24T13:07:22.228Z,20.4
2022-10-24T13:08:24.460Z,20.4
2022-10-24T13:09:26.946Z,20.3
2022-10-24T13:10:29.494Z,20.3
2022-10-24T13:11:31.707Z,20.2
2022-10-24T13:12:34.200Z,20.3
2022-10-24T13:13:36.670Z,20.3
2022-10-24T13:14:38.889Z,20.2
2022-10-24T13:15:41.407Z,20.3
2022-10-24T13:16:43.890Z,20.4
2022-10-24T13:17:47.090Z,20.4
2022-10-24T13:18:50.318Z,20.3
2022-10-24T13:19:52.517Z,20.4
2022-10-24T13:20:54.740Z,20.3
2022-10-24T13:21:56.649Z,20.5
2022-10-24T13:22:59.132Z,20.3
2022-10-24T13:24:01.328Z,20.3
2022-10-24T13:25:03.517Z,20.4
2022-10-24T13:26:05.830Z,20.2
2022-10-24T13:28:13.077Z,20.5
2022-10-24T13:29:15.547Z,20.3
2022-10-24T13:30:17.464Z,20.4
2022-10-24T13:31:19.430Z,20.4
2022-10-24T13:32:21.631Z,20.4
2022-10-24T13:33:23.620Z,20.2
2022-10-24T13:34:25.821Z,20.4
2022-10-24T13:35:28.016Z,20.3
2022-10-24T13:36:30.379Z,20.4
2022-10-24T13:37:32.588Z,20.2
2022-10-24T13:38:34.545Z,20.3
2022-10-24T13:40:42.223Z,20.4
2022-10-24T13:41:44.274Z,20.3
2022-10-24T13:42:47.191Z,20.3
2022-10-24T13:43:50.890Z,20.2
2022-10-24T13:44:52.872Z,20.4
2022-10-24T13:45:55.076Z,20.4
2022-10-24T13:46:57.311Z,20.3
2022-10-24T13:47:59.811Z,20.4
2022-10-24T13:49:02.299Z,20.4
2022-10-24T13:50:04.478Z,20.3
2022-10-24T13:51:07.198Z,20.2
2022-10-24T13:52:09.681Z,20.3
2022-10-24T13:53:12.151Z,20.3
2022-10-24T13:54:14.792Z,20.4
2022-10-24T13:55:16.992Z,20.2
2022-10-24T13:56:19.231Z,20.2
2022-10-24T13:57:21.746Z,20.3
2022-10-24T13:58:23.981Z,20.2
2022-10-24T13:59:26.202Z,20.4
2022-10-24T14:00:28.700Z,20.4
2022-10-24T14:01:31.460Z,20.3
2022-10-24T14:02:34.313Z,20.2
2022-10-24T14:03:41.146Z,20.5
2022-10-24T14:04:43.549Z,20.3
2022-10-24T14:05:45.482Z,20.4
2022-10-24T14:06:47.970Z,20.3
2022-10-24T14:07:49.609Z,20.2
2022-10-24T14:09:57.077Z,20.3
2022-10-24T14:10:59.309Z,20.2
2022-10-24T14:12:01.278Z,20.4
2022-10-24T14:13:03.789Z,20.2
2022-10-24T14:15:10.985Z,20.3
2022-10-24T14:16:13.187Z,20.5
2022-10-24T14:17:22.099Z,20.3
2022-10-24T14:18:23.189Z,20.3
2022-10-24T14:20:30.656Z,20.3
2022-10-24T14:21:32.887Z,20.2
2022-10-24T14:22:35.084Z,20.2
2022-10-24T14:23:36.730Z,20.4
2022-10-24T14:24:38.637Z,20.3
2022-10-24T14:25:40.851Z,20.3
2022-10-24T14:26:42.801Z,20.2
2022-10-24T14:27:45.761Z,20.2
2022-10-24T14:28:51.351Z,20.2